sensor_id;sensor_type;location;lat;lon;timestamp;P1;durP1;ratioP1;P2;durP2;ratioP2
79143;SDS011;68551;47.484;19.092;2023-05-21T00:01:04;8.93;;;5.10;;
79143;SDS011;68551;47.484;19.092;2023-05-21T00:04:09;9.05;;;5.40;;
79143;SDS011;68551;47.484;19.092;2023-05-21T00:07:13;9.50;;;5.35;;
79143;SDS011;68551;47.484;19.092;2023-05-21T00:10:16;7.95;;;5.60;;
79143;SDS011;68551;47.484;19.092;2023-05-21T00:13:21;7.47;;;5.40;;
79143;SDS011;68551;47.484;19.092;2023-05-21T00:16:25;7.70;;;4.93;;
79143;SDS011;68551;47.484;19.092;2023-05-21T00:19:30;7.55;;;5.78;;
79143;SDS011;68551;47.484;19.092;2023-05-21T00:22:36;7.75;;;5.32;;
79143;SDS011;68551;47.484;19.092;2023-05-21T00:25:41;8.15;;;5.68;;
79143;SDS011;68551;47.484;19.092;2023-05-21T00:28:43;8.27;;;6.07;;
79143;SDS011;68551;47.484;19.092;2023-05-21T00:31:48;8.93;;;5.18;;
79143;SDS011;68551;47.484;19.092;2023-05-21T00:34:52;9.35;;;5.70;;
79143;SDS011;68551;47.484;19.092;2023-05-21T00:37:57;7.35;;;5.40;;
79143;SDS011;68551;47.484;19.092;2023-05-21T00:41:00;8.10;;;5.38;;
79143;SDS011;68551;47.484;19.092;2023-05-21T00:44:06;8.00;;;5.05;;
79143;SDS011;68551;47.484;19.092;2023-05-21T00:47:11;7.00;;;5.10;;
79143;SDS011;68551;47.484;19.092;2023-05-21T00:50:17;6.40;;;4.68;;
79143;SDS011;68551;47.484;19.092;2023-05-21T00:53:21;8.85;;;5.63;;
79143;SDS011;68551;47.484;19.092;2023-05-21T00:56:29;7.68;;;5.47;;
79143;SDS011;68551;47.484;19.092;2023-05-21T00:59:32;7.53;;;5.20;;
79143;SDS011;68551;47.484;19.092;2023-05-21T01:02:39;7.50;;;5.53;;
79143;SDS011;68551;47.484;19.092;2023-05-21T01:05:45;7.07;;;5.28;;
79143;SDS011;68551;47.484;19.092;2023-05-21T01:08:50;7.97;;;5.72;;
79143;SDS011;68551;47.484;19.092;2023-05-21T01:11:52;7.05;;;5.10;;
79143;SDS011;68551;47.484;19.092;2023-05-21T01:14:59;7.35;;;5.13;;
79143;SDS011;68551;47.484;19.092;2023-05-21T01:18:08;9.80;;;5.65;;
79143;SDS011;68551;47.484;19.092;2023-05-21T01:21:19;8.88;;;5.50;;
79143;SDS011;68551;47.484;19.092;2023-05-21T01:24:22;8.10;;;5.40;;
79143;SDS011;68551;47.484;19.092;2023-05-21T01:27:25;9.75;;;5.95;;
79143;SDS011;68551;47.484;19.092;2023-05-21T01:30:30;8.45;;;5.68;;
79143;SDS011;68551;47.484;19.092;2023-05-21T01:33:33;9.35;;;5.35;;
79143;SDS011;68551;47.484;19.092;2023-05-21T01:36:46;7.03;;;5.07;;
79143;SDS011;68551;47.484;19.092;2023-05-21T01:39:59;8.80;;;5.43;;
79143;SDS011;68551;47.484;19.092;2023-05-21T01:43:09;5.95;;;4.88;;
79143;SDS011;68551;47.484;19.092;2023-05-21T01:46:15;8.13;;;5.35;;
79143;SDS011;68551;47.484;19.092;2023-05-21T01:49:20;7.88;;;4.95;;
79143;SDS011;68551;47.484;19.092;2023-05-21T01:52:24;8.45;;;5.43;;
79143;SDS011;68551;47.484;19.092;2023-05-21T01:55:28;9.35;;;4.70;;
79143;SDS011;68551;47.484;19.092;2023-05-21T01:58:31;9.13;;;4.97;;
79143;SDS011;68551;47.484;19.092;2023-05-21T02:01:36;9.18;;;6.07;;
79143;SDS011;68551;47.484;19.092;2023-05-21T02:04:38;8.30;;;4.95;;
79143;SDS011;68551;47.484;19.092;2023-05-21T02:07:43;7.25;;;4.85;;
79143;SDS011;68551;47.484;19.092;2023-05-21T02:10:46;7.35;;;5.20;;
79143;SDS011;68551;47.484;19.092;2023-05-21T02:13:48;10.07;;;5.22;;
79143;SDS011;68551;47.484;19.092;2023-05-21T02:16:55;7.80;;;5.25;;
79143;SDS011;68551;47.484;19.092;2023-05-21T02:20:01;7.45;;;5.00;;
79143;SDS011;68551;47.484;19.092;2023-05-21T02:23:16;15.48;;;5.75;;
79143;SDS011;68551;47.484;19.092;2023-05-21T02:26:18;8.10;;;5.38;;
79143;SDS011;68551;47.484;19.092;2023-05-21T02:29:21;7.75;;;5.22;;
79143;SDS011;68551;47.484;19.092;2023-05-21T02:32:23;9.90;;;5.38;;
79143;SDS011;68551;47.484;19.092;2023-05-21T02:35:28;7.85;;;5.43;;
79143;SDS011;68551;47.484;19.092;2023-05-21T02:38:36;11.02;;;6.43;;
79143;SDS011;68551;47.484;19.092;2023-05-21T02:41:41;6.45;;;4.90;;
79143;SDS011;68551;47.484;19.092;2023-05-21T02:44:46;7.32;;;4.85;;
79143;SDS011;68551;47.484;19.092;2023-05-21T02:47:52;6.55;;;4.97;;
79143;SDS011;68551;47.484;19.092;2023-05-21T02:50:57;9.25;;;5.38;;
79143;SDS011;68551;47.484;19.092;2023-05-21T02:54:02;7.55;;;5.78;;
79143;SDS011;68551;47.484;19.092;2023-05-21T02:57:12;6.32;;;4.80;;
79143;SDS011;68551;47.484;19.092;2023-05-21T03:00:15;8.23;;;5.65;;
79143;SDS011;68551;47.484;19.092;2023-05-21T03:03:18;7.20;;;5.53;;
79143;SDS011;68551;47.484;19.092;2023-05-21T03:06:21;9.32;;;5.38;;
79143;SDS011;68551;47.484;19.092;2023-05-21T03:09:26;9.50;;;5.82;;
79143;SDS011;68551;47.484;19.092;2023-05-21T03:12:32;8.48;;;5.53;;
79143;SDS011;68551;47.484;19.092;2023-05-21T03:15:34;7.57;;;4.97;;
79143;SDS011;68551;47.484;19.092;2023-05-21T03:18:40;6.80;;;5.13;;
79143;SDS011;68551;47.484;19.092;2023-05-21T03:21:44;6.57;;;4.57;;
79143;SDS011;68551;47.484;19.092;2023-05-21T03:24:46;7.68;;;5.35;;
79143;SDS011;68551;47.484;19.092;2023-05-21T03:27:49;6.97;;;4.72;;
79143;SDS011;68551;47.484;19.092;2023-05-21T03:31:22;10.77;;;5.95;;
79143;SDS011;68551;47.484;19.092;2023-05-21T03:34:52;8.43;;;5.47;;
79143;SDS011;68551;47.484;19.092;2023-05-21T03:37:59;9.00;;;6.35;;
79143;SDS011;68551;47.484;19.092;2023-05-21T03:41:02;7.45;;;5.60;;
79143;SDS011;68551;47.484;19.092;2023-05-21T03:44:07;9.80;;;6.22;;
79143;SDS011;68551;47.484;19.092;2023-05-21T03:47:23;7.80;;;5.90;;
79143;SDS011;68551;47.484;19.092;2023-05-21T03:50:26;8.52;;;5.50;;
79143;SDS011;68551;47.484;19.092;2023-05-21T03:53:32;9.73;;;5.70;;
79143;SDS011;68551;47.484;19.092;2023-05-21T03:56:35;7.85;;;6.13;;
79143;SDS011;68551;47.484;19.092;2023-05-21T03:59:39;8.80;;;5.65;;
79143;SDS011;68551;47.484;19.092;2023-05-21T04:02:41;8.00;;;6.15;;
79143;SDS011;68551;47.484;19.092;2023-05-21T04:05:46;8.90;;;5.40;;
79143;SDS011;68551;47.484;19.092;2023-05-21T04:08:50;7.22;;;5.45;;
79143;SDS011;68551;47.484;19.092;2023-05-21T04:11:53;8.68;;;5.68;;
79143;SDS011;68551;47.484;19.092;2023-05-21T04:14:57;8.52;;;5.75;;
79143;SDS011;68551;47.484;19.092;2023-05-21T04:18:00;6.43;;;5.10;;
79143;SDS011;68551;47.484;19.092;2023-05-21T04:21:07;12.57;;;5.75;;
79143;SDS011;68551;47.484;19.092;2023-05-21T04:24:12;9.30;;;5.32;;
79143;SDS011;68551;47.484;19.092;2023-05-21T04:27:26;7.32;;;4.95;;
79143;SDS011;68551;47.484;19.092;2023-05-21T04:30:29;10.40;;;5.38;;
79143;SDS011;68551;47.484;19.092;2023-05-21T04:33:36;7.20;;;5.10;;
79143;SDS011;68551;47.484;19.092;2023-05-21T04:36:40;9.73;;;5.55;;
79143;SDS011;68551;47.484;19.092;2023-05-21T04:39:48;8.68;;;5.97;;
79143;SDS011;68551;47.484;19.092;2023-05-21T04:42:51;9.77;;;5.50;;
79143;SDS011;68551;47.484;19.092;2023-05-21T04:45:57;8.07;;;4.45;;
79143;SDS011;68551;47.484;19.092;2023-05-21T04:49:01;6.28;;;4.47;;
79143;SDS011;68551;47.484;19.092;2023-05-21T04:52:06;6.93;;;4.75;;
79143;SDS011;68551;47.484;19.092;2023-05-21T04:55:09;6.72;;;5.05;;
79143;SDS011;68551;47.484;19.092;2023-05-21T04:58:12;7.90;;;4.70;;
79143;SDS011;68551;47.484;19.092;2023-05-21T05:01:16;7.65;;;5.20;;
79143;SDS011;68551;47.484;19.092;2023-05-21T05:04:21;6.35;;;4.10;;
79143;SDS011;68551;47.484;19.092;2023-05-21T05:07:24;7.75;;;4.22;;
79143;SDS011;68551;47.484;19.092;2023-05-21T05:10:26;5.10;;;3.90;;
79143;SDS011;68551;47.484;19.092;2023-05-21T05:13:29;5.72;;;4.32;;
79143;SDS011;68551;47.484;19.092;2023-05-21T05:16:35;5.53;;;4.40;;
79143;SDS011;68551;47.484;19.092;2023-05-21T05:19:37;7.00;;;4.10;;
79143;SDS011;68551;47.484;19.092;2023-05-21T05:22:40;4.90;;;3.63;;
79143;SDS011;68551;47.484;19.092;2023-05-21T05:25:47;7.22;;;4.00;;
79143;SDS011;68551;47.484;19.092;2023-05-21T05:28:49;6.40;;;4.30;;
79143;SDS011;68551;47.484;19.092;2023-05-21T05:31:57;4.78;;;3.70;;
79143;SDS011;68551;47.484;19.092;2023-05-21T05:35:00;5.07;;;3.70;;
79143;SDS011;68551;47.484;19.092;2023-05-21T05:41:10;6.32;;;4.60;;
79143;SDS011;68551;47.484;19.092;2023-05-21T05:44:13;6.03;;;4.43;;
79143;SDS011;68551;47.484;19.092;2023-05-21T05:47:18;6.78;;;4.30;;
79143;SDS011;68551;47.484;19.092;2023-05-21T05:53:26;5.43;;;3.92;;
79143;SDS011;68551;47.484;19.092;2023-05-21T05:56:33;5.57;;;4.28;;
79143;SDS011;68551;47.484;19.092;2023-05-21T05:59:39;10.52;;;4.32;;
79143;SDS011;68551;47.484;19.092;2023-05-21T06:02:44;7.03;;;4.18;;
79143;SDS011;68551;47.484;19.092;2023-05-21T06:05:49;5.35;;;4.07;;
79143;SDS011;68551;47.484;19.092;2023-05-21T06:08:52;5.85;;;4.38;;
79143;SDS011;68551;47.484;19.092;2023-05-21T06:11:55;5.40;;;3.70;;
79143;SDS011;68551;47.484;19.092;2023-05-21T06:15:00;5.57;;;4.45;;
79143;SDS011;68551;47.484;19.092;2023-05-21T06:18:03;7.97;;;4.00;;
79143;SDS011;68551;47.484;19.092;2023-05-21T06:21:06;5.63;;;4.30;;
79143;SDS011;68551;47.484;19.092;2023-05-21T06:24:13;6.32;;;4.18;;
79143;SDS011;68551;47.484;19.092;2023-05-21T06:27:16;6.70;;;3.65;;
79143;SDS011;68551;47.484;19.092;2023-05-21T06:30:18;7.40;;;4.60;;
79143;SDS011;68551;47.484;19.092;2023-05-21T06:33:23;5.78;;;4.30;;
79143;SDS011;68551;47.484;19.092;2023-05-21T06:36:28;5.28;;;3.72;;
79143;SDS011;68551;47.484;19.092;2023-05-21T06:39:33;7.80;;;4.80;;
79143;SDS011;68551;47.484;19.092;2023-05-21T06:42:39;5.28;;;4.15;;
79143;SDS011;68551;47.484;19.092;2023-05-21T06:46:05;5.68;;;4.03;;
79143;SDS011;68551;47.484;19.092;2023-05-21T06:49:16;5.25;;;4.13;;
79143;SDS011;68551;47.484;19.092;2023-05-21T06:52:18;6.18;;;4.28;;
79143;SDS011;68551;47.484;19.092;2023-05-21T06:55:24;5.45;;;4.50;;
79143;SDS011;68551;47.484;19.092;2023-05-21T06:58:59;5.68;;;4.03;;
79143;SDS011;68551;47.484;19.092;2023-05-21T07:02:01;5.28;;;3.85;;
79143;SDS011;68551;47.484;19.092;2023-05-21T07:05:12;4.95;;;3.83;;
79143;SDS011;68551;47.484;19.092;2023-05-21T07:08:19;6.43;;;4.13;;
79143;SDS011;68551;47.484;19.092;2023-05-21T07:11:22;4.82;;;4.00;;
79143;SDS011;68551;47.484;19.092;2023-05-21T07:14:30;5.00;;;3.72;;
79143;SDS011;68551;47.484;19.092;2023-05-21T07:17:35;5.53;;;4.13;;
79143;SDS011;68551;47.484;19.092;2023-05-21T07:20:41;6.00;;;4.47;;
79143;SDS011;68551;47.484;19.092;2023-05-21T07:23:51;5.75;;;4.10;;
79143;SDS011;68551;47.484;19.092;2023-05-21T07:26:54;5.85;;;3.95;;
79143;SDS011;68551;47.484;19.092;2023-05-21T07:29:56;5.05;;;3.72;;
79143;SDS011;68551;47.484;19.092;2023-05-21T07:33:01;4.60;;;3.92;;
79143;SDS011;68551;47.484;19.092;2023-05-21T07:36:06;4.93;;;4.30;;
79143;SDS011;68551;47.484;19.092;2023-05-21T07:39:14;7.22;;;4.25;;
79143;SDS011;68551;47.484;19.092;2023-05-21T07:42:19;6.55;;;3.75;;
79143;SDS011;68551;47.484;19.092;2023-05-21T07:45:21;5.95;;;4.55;;
79143;SDS011;68551;47.484;19.092;2023-05-21T07:48:25;5.25;;;3.60;;
79143;SDS011;68551;47.484;19.092;2023-05-21T07:51:34;4.88;;;3.58;;
79143;SDS011;68551;47.484;19.092;2023-05-21T07:54:37;6.00;;;3.75;;
79143;SDS011;68551;47.484;19.092;2023-05-21T07:57:41;6.60;;;4.25;;
79143;SDS011;68551;47.484;19.092;2023-05-21T08:00:50;4.50;;;3.90;;
79143;SDS011;68551;47.484;19.092;2023-05-21T08:03:57;5.88;;;4.18;;
79143;SDS011;68551;47.484;19.092;2023-05-21T08:07:10;5.32;;;4.43;;
79143;SDS011;68551;47.484;19.092;2023-05-21T08:10:13;4.82;;;3.95;;
79143;SDS011;68551;47.484;19.092;2023-05-21T08:13:20;5.68;;;5.07;;
79143;SDS011;68551;47.484;19.092;2023-05-21T08:16:22;5.18;;;3.80;;
79143;SDS011;68551;47.484;19.092;2023-05-21T08:19:28;4.93;;;3.85;;
79143;SDS011;68551;47.484;19.092;2023-05-21T08:22:33;4.85;;;3.60;;
79143;SDS011;68551;47.484;19.092;2023-05-21T08:25:36;4.25;;;3.80;;
79143;SDS011;68551;47.484;19.092;2023-05-21T08:28:42;5.22;;;4.20;;
79143;SDS011;68551;47.484;19.092;2023-05-21T08:31:46;4.78;;;3.67;;
79143;SDS011;68551;47.484;19.092;2023-05-21T08:34:49;4.82;;;3.90;;
79143;SDS011;68551;47.484;19.092;2023-05-21T08:38:02;5.03;;;4.05;;
79143;SDS011;68551;47.484;19.092;2023-05-21T08:41:17;6.57;;;4.28;;
79143;SDS011;68551;47.484;19.092;2023-05-21T08:44:24;7.00;;;4.63;;
79143;SDS011;68551;47.484;19.092;2023-05-21T08:47:30;5.03;;;3.65;;
79143;SDS011;68551;47.484;19.092;2023-05-21T08:50:39;4.90;;;3.40;;
79143;SDS011;68551;47.484;19.092;2023-05-21T08:53:48;4.07;;;3.30;;
79143;SDS011;68551;47.484;19.092;2023-05-21T08:56:53;4.85;;;3.63;;
79143;SDS011;68551;47.484;19.092;2023-05-21T08:59:58;3.47;;;3.15;;
79143;SDS011;68551;47.484;19.092;2023-05-21T09:03:03;6.00;;;3.47;;
79143;SDS011;68551;47.484;19.092;2023-05-21T09:06:15;5.65;;;3.60;;
79143;SDS011;68551;47.484;19.092;2023-05-21T09:09:23;5.30;;;3.60;;
79143;SDS011;68551;47.484;19.092;2023-05-21T09:12:38;5.40;;;3.63;;
79143;SDS011;68551;47.484;19.092;2023-05-21T09:15:41;5.22;;;3.67;;
79143;SDS011;68551;47.484;19.092;2023-05-21T09:18:44;6.47;;;4.05;;
79143;SDS011;68551;47.484;19.092;2023-05-21T09:22:05;4.70;;;3.80;;
79143;SDS011;68551;47.484;19.092;2023-05-21T09:25:10;5.70;;;3.97;;
79143;SDS011;68551;47.484;19.092;2023-05-21T09:28:15;4.22;;;3.65;;
79143;SDS011;68551;47.484;19.092;2023-05-21T09:31:21;4.22;;;3.60;;
79143;SDS011;68551;47.484;19.092;2023-05-21T09:34:29;4.90;;;3.55;;
79143;SDS011;68551;47.484;19.092;2023-05-21T09:37:31;4.63;;;3.75;;
79143;SDS011;68551;47.484;19.092;2023-05-21T09:40:43;4.72;;;3.83;;
79143;SDS011;68551;47.484;19.092;2023-05-21T09:43:47;5.75;;;4.03;;
79143;SDS011;68551;47.484;19.092;2023-05-21T09:46:55;5.00;;;3.50;;
79143;SDS011;68551;47.484;19.092;2023-05-21T09:49:59;5.90;;;3.75;;
79143;SDS011;68551;47.484;19.092;2023-05-21T09:56:12;5.28;;;3.75;;
79143;SDS011;68551;47.484;19.092;2023-05-21T09:59:18;4.18;;;3.50;;
79143;SDS011;68551;47.484;19.092;2023-05-21T10:02:22;6.05;;;3.90;;
79143;SDS011;68551;47.484;19.092;2023-05-21T10:05:29;5.22;;;3.47;;
79143;SDS011;68551;47.484;19.092;2023-05-21T10:08:34;5.72;;;3.63;;
79143;SDS011;68551;47.484;19.092;2023-05-21T10:11:43;4.40;;;3.70;;
79143;SDS011;68551;47.484;19.092;2023-05-21T10:14:51;5.30;;;3.92;;
79143;SDS011;68551;47.484;19.092;2023-05-21T10:18:01;3.65;;;3.25;;
79143;SDS011;68551;47.484;19.092;2023-05-21T10:21:09;4.32;;;3.40;;
79143;SDS011;68551;47.484;19.092;2023-05-21T10:24:14;6.53;;;3.75;;
79143;SDS011;68551;47.484;19.092;2023-05-21T10:27:21;5.10;;;3.45;;
79143;SDS011;68551;47.484;19.092;2023-05-21T10:30:23;4.55;;;3.78;;
79143;SDS011;68551;47.484;19.092;2023-05-21T10:33:26;5.60;;;3.92;;
79143;SDS011;68551;47.484;19.092;2023-05-21T10:36:30;5.43;;;3.47;;
79143;SDS011;68551;47.484;19.092;2023-05-21T10:39:35;5.03;;;4.00;;
79143;SDS011;68551;47.484;19.092;2023-05-21T10:43:05;5.00;;;3.53;;
79143;SDS011;68551;47.484;19.092;2023-05-21T10:46:15;6.05;;;3.40;;
79143;SDS011;68551;47.484;19.092;2023-05-21T10:49:34;5.05;;;3.55;;
79143;SDS011;68551;47.484;19.092;2023-05-21T10:52:51;3.97;;;3.40;;
79143;SDS011;68551;47.484;19.092;2023-05-21T10:56:03;4.10;;;3.38;;
79143;SDS011;68551;47.484;19.092;2023-05-21T11:02:44;5.45;;;3.42;;
79143;SDS011;68551;47.484;19.092;2023-05-21T11:09:01;4.18;;;3.40;;
79143;SDS011;68551;47.484;19.092;2023-05-21T11:12:14;5.18;;;3.50;;
79143;SDS011;68551;47.484;19.092;2023-05-21T11:15:20;4.55;;;2.97;;
79143;SDS011;68551;47.484;19.092;2023-05-21T11:19:15;5.60;;;3.67;;
79143;SDS011;68551;47.484;19.092;2023-05-21T11:21:51;5.70;;;3.95;;
79143;SDS011;68551;47.484;19.092;2023-05-21T11:24:57;5.22;;;3.72;;
79143;SDS011;68551;47.484;19.092;2023-05-21T11:28:04;5.72;;;3.55;;
79143;SDS011;68551;47.484;19.092;2023-05-21T11:31:43;4.75;;;3.42;;
79143;SDS011;68551;47.484;19.092;2023-05-21T11:34:45;5.72;;;4.18;;
79143;SDS011;68551;47.484;19.092;2023-05-21T11:37:57;4.90;;;3.67;;
79143;SDS011;68551;47.484;19.092;2023-05-21T11:41:00;4.50;;;3.30;;
79143;SDS011;68551;47.484;19.092;2023-05-21T11:44:09;5.60;;;3.63;;
79143;SDS011;68551;47.484;19.092;2023-05-21T11:50:18;5.20;;;3.55;;
79143;SDS011;68551;47.484;19.092;2023-05-21T11:53:21;4.22;;;3.45;;
79143;SDS011;68551;47.484;19.092;2023-05-21T11:56:26;6.72;;;4.40;;
79143;SDS011;68551;47.484;19.092;2023-05-21T11:59:33;5.80;;;4.30;;
79143;SDS011;68551;47.484;19.092;2023-05-21T12:02:42;8.77;;;4.03;;
79143;SDS011;68551;47.484;19.092;2023-05-21T12:05:47;7.10;;;4.15;;
79143;SDS011;68551;47.484;19.092;2023-05-21T12:08:53;5.85;;;4.40;;
79143;SDS011;68551;47.484;19.092;2023-05-21T12:11:59;6.88;;;4.43;;
79143;SDS011;68551;47.484;19.092;2023-05-21T12:15:05;5.68;;;3.53;;
79143;SDS011;68551;47.484;19.092;2023-05-21T12:18:11;4.65;;;3.70;;
79143;SDS011;68551;47.484;19.092;2023-05-21T12:21:18;6.05;;;4.18;;
79143;SDS011;68551;47.484;19.092;2023-05-21T12:24:22;4.45;;;3.53;;
79143;SDS011;68551;47.484;19.092;2023-05-21T12:27:26;4.95;;;4.20;;
79143;SDS011;68551;47.484;19.092;2023-05-21T12:30:47;6.45;;;3.95;;
79143;SDS011;68551;47.484;19.092;2023-05-21T12:33:50;5.80;;;4.15;;
79143;SDS011;68551;47.484;19.092;2023-05-21T12:36:53;4.75;;;3.78;;
79143;SDS011;68551;47.484;19.092;2023-05-21T12:39:57;5.50;;;4.03;;
79143;SDS011;68551;47.484;19.092;2023-05-21T12:43:01;6.05;;;3.53;;
79143;SDS011;68551;47.484;19.092;2023-05-21T12:49:28;5.13;;;4.15;;
79143;SDS011;68551;47.484;19.092;2023-05-21T12:52:35;6.93;;;4.10;;
79143;SDS011;68551;47.484;19.092;2023-05-21T12:55:37;5.45;;;4.10;;
79143;SDS011;68551;47.484;19.092;2023-05-21T12:58:41;6.75;;;3.92;;
79143;SDS011;68551;47.484;19.092;2023-05-21T13:01:46;7.40;;;4.72;;
79143;SDS011;68551;47.484;19.092;2023-05-21T13:04:59;7.10;;;4.13;;
79143;SDS011;68551;47.484;19.092;2023-05-21T13:08:02;4.55;;;3.92;;
79143;SDS011;68551;47.484;19.092;2023-05-21T13:11:05;5.68;;;3.70;;
79143;SDS011;68551;47.484;19.092;2023-05-21T13:14:08;5.22;;;3.83;;
79143;SDS011;68551;47.484;19.092;2023-05-21T13:17:10;4.45;;;3.45;;
79143;SDS011;68551;47.484;19.092;2023-05-21T13:20:14;5.75;;;3.70;;
79143;SDS011;68551;47.484;19.092;2023-05-21T13:23:18;4.38;;;3.50;;
79143;SDS011;68551;47.484;19.092;2023-05-21T13:26:22;6.35;;;4.25;;
79143;SDS011;68551;47.484;19.092;2023-05-21T13:29:32;5.68;;;3.97;;
79143;SDS011;68551;47.484;19.092;2023-05-21T13:32:37;5.28;;;4.10;;
79143;SDS011;68551;47.484;19.092;2023-05-21T13:35:43;4.97;;;4.05;;
79143;SDS011;68551;47.484;19.092;2023-05-21T13:38:46;6.57;;;3.80;;
79143;SDS011;68551;47.484;19.092;2023-05-21T13:41:51;4.15;;;3.45;;
79143;SDS011;68551;47.484;19.092;2023-05-21T13:44:55;5.45;;;4.28;;
79143;SDS011;68551;47.484;19.092;2023-05-21T13:47:58;6.80;;;3.97;;
79143;SDS011;68551;47.484;19.092;2023-05-21T13:51:05;5.18;;;3.78;;
79143;SDS011;68551;47.484;19.092;2023-05-21T13:54:13;5.20;;;4.03;;
79143;SDS011;68551;47.484;19.092;2023-05-21T13:57:19;5.15;;;4.05;;
79143;SDS011;68551;47.484;19.092;2023-05-21T14:00:21;6.90;;;4.57;;
79143;SDS011;68551;47.484;19.092;2023-05-21T14:03:32;5.28;;;3.83;;
79143;SDS011;68551;47.484;19.092;2023-05-21T14:06:34;5.03;;;4.07;;
79143;SDS011;68551;47.484;19.092;2023-05-21T14:09:37;5.63;;;3.85;;
79143;SDS011;68551;47.484;19.092;2023-05-21T14:12:39;6.65;;;3.65;;
79143;SDS011;68551;47.484;19.092;2023-05-21T14:15:46;5.18;;;4.30;;
79143;SDS011;68551;47.484;19.092;2023-05-21T14:18:56;5.65;;;3.95;;
79143;SDS011;68551;47.484;19.092;2023-05-21T14:22:01;5.70;;;3.38;;
79143;SDS011;68551;47.484;19.092;2023-05-21T14:25:03;5.03;;;4.07;;
79143;SDS011;68551;47.484;19.092;2023-05-21T14:28:09;5.88;;;4.18;;
79143;SDS011;68551;47.484;19.092;2023-05-21T14:31:11;5.10;;;4.10;;
79143;SDS011;68551;47.484;19.092;2023-05-21T14:34:16;5.38;;;3.60;;
79143;SDS011;68551;47.484;19.092;2023-05-21T14:37:18;5.68;;;4.07;;
79143;SDS011;68551;47.484;19.092;2023-05-21T14:40:23;5.45;;;3.30;;
79143;SDS011;68551;47.484;19.092;2023-05-21T14:43:27;5.97;;;4.38;;
79143;SDS011;68551;47.484;19.092;2023-05-21T14:49:37;5.30;;;3.45;;
79143;SDS011;68551;47.484;19.092;2023-05-21T14:52:42;4.57;;;3.70;;
79143;SDS011;68551;47.484;19.092;2023-05-21T14:55:44;5.93;;;4.13;;
79143;SDS011;68551;47.484;19.092;2023-05-21T14:58:47;5.07;;;3.70;;
79143;SDS011;68551;47.484;19.092;2023-05-21T15:01:52;5.63;;;4.00;;
79143;SDS011;68551;47.484;19.092;2023-05-21T15:04:54;5.70;;;3.75;;
79143;SDS011;68551;47.484;19.092;2023-05-21T15:07:59;5.43;;;4.35;;
79143;SDS011;68551;47.484;19.092;2023-05-21T15:11:02;5.38;;;4.25;;
79143;SDS011;68551;47.484;19.092;2023-05-21T15:14:04;6.43;;;4.13;;
79143;SDS011;68551;47.484;19.092;2023-05-21T15:17:07;4.35;;;3.78;;
79143;SDS011;68551;47.484;19.092;2023-05-21T15:20:14;6.00;;;3.97;;
79143;SDS011;68551;47.484;19.092;2023-05-21T15:23:17;5.38;;;3.50;;
79143;SDS011;68551;47.484;19.092;2023-05-21T15:26:19;5.70;;;3.83;;
79143;SDS011;68551;47.484;19.092;2023-05-21T15:29:26;5.00;;;4.00;;
79143;SDS011;68551;47.484;19.092;2023-05-21T15:32:29;5.78;;;3.40;;
79143;SDS011;68551;47.484;19.092;2023-05-21T15:35:34;4.95;;;3.72;;
79143;SDS011;68551;47.484;19.092;2023-05-21T15:38:37;5.28;;;4.00;;
79143;SDS011;68551;47.484;19.092;2023-05-21T15:41:40;6.28;;;3.67;;
79143;SDS011;68551;47.484;19.092;2023-05-21T15:44:45;6.00;;;4.20;;
79143;SDS011;68551;47.484;19.092;2023-05-21T15:47:50;7.03;;;4.22;;
79143;SDS011;68551;47.484;19.092;2023-05-21T15:50:55;5.90;;;4.13;;
79143;SDS011;68551;47.484;19.092;2023-05-21T15:53:57;5.22;;;3.78;;
79143;SDS011;68551;47.484;19.092;2023-05-21T15:57:04;4.47;;;3.30;;
79143;SDS011;68551;47.484;19.092;2023-05-21T16:00:11;4.32;;;3.40;;
79143;SDS011;68551;47.484;19.092;2023-05-21T16:03:20;5.10;;;3.90;;
79143;SDS011;68551;47.484;19.092;2023-05-21T16:06:23;4.57;;;3.80;;
79143;SDS011;68551;47.484;19.092;2023-05-21T16:09:26;4.28;;;3.45;;
79143;SDS011;68551;47.484;19.092;2023-05-21T16:12:28;4.80;;;4.10;;
79143;SDS011;68551;47.484;19.092;2023-05-21T16:15:31;8.35;;;3.95;;
79143;SDS011;68551;47.484;19.092;2023-05-21T16:18:36;4.63;;;3.53;;
79143;SDS011;68551;47.484;19.092;2023-05-21T16:21:39;5.30;;;3.85;;
79143;SDS011;68551;47.484;19.092;2023-05-21T16:24:42;7.57;;;4.35;;
79143;SDS011;68551;47.484;19.092;2023-05-21T16:27:44;7.00;;;3.83;;
79143;SDS011;68551;47.484;19.092;2023-05-21T16:30:50;5.05;;;3.50;;
79143;SDS011;68551;47.484;19.092;2023-05-21T16:33:52;6.13;;;4.13;;
79143;SDS011;68551;47.484;19.092;2023-05-21T16:36:57;4.18;;;3.60;;
79143;SDS011;68551;47.484;19.092;2023-05-21T16:40:02;5.85;;;3.95;;
79143;SDS011;68551;47.484;19.092;2023-05-21T16:43:07;4.22;;;3.55;;
79143;SDS011;68551;47.484;19.092;2023-05-21T16:46:09;5.45;;;3.70;;
79143;SDS011;68551;47.484;19.092;2023-05-21T16:49:12;6.63;;;4.10;;
79143;SDS011;68551;47.484;19.092;2023-05-21T16:52:16;6.30;;;3.75;;
79143;SDS011;68551;47.484;19.092;2023-05-21T16:55:20;6.75;;;3.60;;
79143;SDS011;68551;47.484;19.092;2023-05-21T16:58:25;5.28;;;3.70;;
79143;SDS011;68551;47.484;19.092;2023-05-21T17:01:30;4.22;;;3.50;;
79143;SDS011;68551;47.484;19.092;2023-05-21T17:04:34;4.70;;;3.85;;
79143;SDS011;68551;47.484;19.092;2023-05-21T17:10:42;6.43;;;4.13;;
79143;SDS011;68551;47.484;19.092;2023-05-21T17:13:44;5.55;;;4.40;;
79143;SDS011;68551;47.484;19.092;2023-05-21T17:16:49;6.65;;;4.05;;
79143;SDS011;68551;47.484;19.092;2023-05-21T17:19:54;4.90;;;4.00;;
79143;SDS011;68551;47.484;19.092;2023-05-21T17:22:57;7.20;;;4.57;;
79143;SDS011;68551;47.484;19.092;2023-05-21T17:29:07;4.38;;;3.63;;
79143;SDS011;68551;47.484;19.092;2023-05-21T17:32:12;6.10;;;3.90;;
79143;SDS011;68551;47.484;19.092;2023-05-21T17:35:16;6.43;;;3.97;;
79143;SDS011;68551;47.484;19.092;2023-05-21T17:38:22;5.45;;;4.15;;
79143;SDS011;68551;47.484;19.092;2023-05-21T17:41:24;6.88;;;4.40;;
79143;SDS011;68551;47.484;19.092;2023-05-21T17:44:30;5.13;;;3.80;;
79143;SDS011;68551;47.484;19.092;2023-05-21T17:47:32;5.20;;;3.95;;
79143;SDS011;68551;47.484;19.092;2023-05-21T17:50:35;7.78;;;4.20;;
79143;SDS011;68551;47.484;19.092;2023-05-21T17:53:38;4.43;;;3.05;;
79143;SDS011;68551;47.484;19.092;2023-05-21T17:56:44;5.68;;;4.15;;
79143;SDS011;68551;47.484;19.092;2023-05-21T17:59:52;5.75;;;4.22;;
79143;SDS011;68551;47.484;19.092;2023-05-21T18:02:56;4.82;;;3.80;;
79143;SDS011;68551;47.484;19.092;2023-05-21T18:05:58;6.57;;;4.25;;
79143;SDS011;68551;47.484;19.092;2023-05-21T18:09:01;7.03;;;4.18;;
79143;SDS011;68551;47.484;19.092;2023-05-21T18:12:03;5.05;;;4.20;;
79143;SDS011;68551;47.484;19.092;2023-05-21T18:15:12;5.25;;;4.57;;
79143;SDS011;68551;47.484;19.092;2023-05-21T18:18:15;5.90;;;4.57;;
79143;SDS011;68551;47.484;19.092;2023-05-21T18:21:22;7.22;;;4.70;;
79143;SDS011;68551;47.484;19.092;2023-05-21T18:24:27;5.60;;;4.10;;
79143;SDS011;68551;47.484;19.092;2023-05-21T18:27:36;5.43;;;4.18;;
79143;SDS011;68551;47.484;19.092;2023-05-21T18:30:41;5.47;;;3.83;;
79143;SDS011;68551;47.484;19.092;2023-05-21T18:33:45;6.55;;;4.82;;
79143;SDS011;68551;47.484;19.092;2023-05-21T18:36:48;5.60;;;3.97;;
79143;SDS011;68551;47.484;19.092;2023-05-21T18:39:53;6.57;;;4.78;;
79143;SDS011;68551;47.484;19.092;2023-05-21T18:43:00;6.82;;;4.38;;
79143;SDS011;68551;47.484;19.092;2023-05-21T18:46:04;7.90;;;4.97;;
79143;SDS011;68551;47.484;19.092;2023-05-21T18:49:06;5.40;;;4.40;;
79143;SDS011;68551;47.484;19.092;2023-05-21T18:52:09;8.80;;;5.20;;